Time;durP1;ratioP1;P1;durP2;ratioP2;P2;SDS_P1;SDS_P2;PMS_P1;PMS_P2;Temp;Humidity;BMP_temperature;BMP_pressure;BME280_temperature;BME280_humidity;BME280_pressure;Samples;Min_cycle;Max_cycle;Signal;HPM_P1;HPM_P2
2022/01/21 00:01:19;;;;;;;7.47;2.50;;;-0.50;99.90;;;;;;5127440;28;20207;-60
2022/01/21 00:03:46;;;;;;;7.50;3.30;;;-0.50;99.90;;;;;;5132294;28;20294;-61
2022/01/21 00:06:14;;;;;;;11.00;2.92;;;-0.50;99.90;;;;;;5132655;28;20204;-61
2022/01/21 00:08:44;;;;;;;8.52;2.85;;;-0.50;99.90;;;;;;5131584;28;20199;-60
2022/01/21 00:11:12;;;;;;;7.32;3.15;;;-0.50;99.90;;;;;;5131157;28;20196;-61
2022/01/21 00:13:40;;;;;;;13.32;3.83;;;-0.60;99.90;;;;;;5127907;28;20230;-60
2022/01/21 00:16:09;;;;;;;8.27;2.30;;;-0.60;99.90;;;;;;5125490;28;20196;-61
2022/01/21 00:18:38;;;;;;;16.98;3.45;;;-0.60;99.90;;;;;;5124979;28;20213;-60
2022/01/21 00:32:07;;;;;;;7.07;2.65;;;-0.60;99.90;;;;;;5128622;28;20179;-60
2022/01/21 00:34:35;;;;;;;4.78;2.30;;;-0.60;99.90;;;;;;5127425;28;20226;-60
2022/01/21 00:37:02;;;;;;;8.65;2.33;;;-0.60;99.90;;;;;;5125586;28;20203;-61
2022/01/21 00:39:33;;;;;;;7.82;2.50;;;-0.60;99.90;;;;;;5124602;28;20548;-62
2022/01/21 00:42:08;;;;;;;7.13;2.70;;;-0.60;99.90;;;;;;5122225;28;20227;-61
2022/01/21 00:44:35;;;;;;;14.05;3.25;;;-0.60;99.90;;;;;;5120486;28;20243;-59
2022/01/21 00:47:02;;;;;;;20.77;3.63;;;-0.60;99.90;;;;;;5118297;28;20218;-60
2022/01/21 00:49:29;;;;;;;10.45;2.53;;;-0.60;99.90;;;;;;5117772;28;20671;-60
2022/01/21 00:51:56;;;;;;;11.02;3.20;;;-0.70;99.90;;;;;;5119778;28;20602;-61
2022/01/21 00:54:23;;;;;;;5.38;2.25;;;-0.70;99.90;;;;;;5118578;28;20725;-60
2022/01/21 00:56:52;;;;;;;7.53;2.95;;;-0.70;99.90;;;;;;5120150;28;20207;-61
2022/01/21 00:59:19;;;;;;;10.98;3.20;;;-0.70;99.90;;;;;;5120005;28;20199;-60
2022/01/21 01:01:46;;;;;;;10.73;2.92;;;-0.70;99.90;;;;;;5118898;28;20199;-60
2022/01/21 01:04:13;;;;;;;13.68;2.80;;;-0.70;99.90;;;;;;5116883;28;20215;-60
2022/01/21 01:06:41;;;;;;;4.32;2.00;;;-0.70;99.90;;;;;;5117541;28;20289;-60
2022/01/21 01:09:08;;;;;;;11.07;2.60;;;-0.80;99.90;;;;;;5117385;28;20195;-60
2022/01/21 01:11:49;;;;;;;5.53;2.35;;;-0.80;99.90;;;;;;5117241;28;20226;-60
2022/01/21 01:20:00;;;;;;;5.38;2.92;;;-0.80;99.90;;;;;;5117540;28;20183;-60
2022/01/21 01:22:36;;;;;;;12.95;3.10;;;-0.80;99.90;;;;;;5117200;28;20180;-59
2022/01/21 01:27:48;;;;;;;10.75;2.65;;;-0.80;99.90;;;;;;5117352;28;20703;-60
2022/01/21 01:30:20;;;;;;;14.93;4.00;;;-0.80;99.90;;;;;;5116748;28;20203;-60
2022/01/21 01:32:48;;;;;;;10.05;2.60;;;-0.80;99.90;;;;;;5116660;28;20207;-60
2022/01/21 01:35:19;;;;;;;9.63;2.35;;;-0.80;99.90;;;;;;5116129;28;20220;-60
2022/01/21 01:38:11;;;;;;;8.40;2.55;;;-0.80;99.90;;;;;;5116155;28;20564;-60
2022/01/21 01:40:43;;;;;;;9.48;2.28;;;-0.80;99.90;;;;;;5116157;28;20262;-60
2022/01/21 01:51:26;;;;;;;8.65;2.53;;;-0.70;99.90;;;;;;5126119;28;20171;-60
2022/01/21 01:53:56;;;;;;;7.20;2.50;;;-0.70;99.90;;;;;;5121898;28;20227;-58
2022/01/21 01:56:28;;;;;;;4.68;1.88;;;-0.70;99.90;;;;;;5120436;28;20233;-59
2022/01/21 01:58:55;;;;;;;11.65;2.58;;;-0.70;99.90;;;;;;5119016;28;20184;-61
2022/01/21 02:01:23;;;;;;;14.73;3.53;;;-0.70;99.90;;;;;;5117271;28;20663;-60
2022/01/21 02:03:51;;;;;;;9.20;2.72;;;-0.70;99.90;;;;;;5117961;28;20219;-60
2022/01/21 02:06:18;;;;;;;9.35;2.05;;;-0.70;99.90;;;;;;5117502;28;20196;-60
2022/01/21 02:08:45;;;;;;;10.57;2.53;;;-0.70;99.90;;;;;;5117146;28;20203;-60
2022/01/21 02:11:13;;;;;;;7.78;2.80;;;-0.70;99.90;;;;;;5116126;28;20203;-60
2022/01/21 02:13:44;;;;;;;12.88;2.75;;;-0.70;99.90;;;;;;5115188;28;20245;-60
2022/01/21 02:16:28;;;;;;;8.90;3.00;;;-0.70;99.90;;;;;;5115577;28;20658;-60
2022/01/21 02:21:46;;;;;;;7.80;2.55;;;-0.70;99.90;;;;;;5119543;28;20184;-61
2022/01/21 02:24:17;;;;;;;7.18;2.50;;;-0.70;99.90;;;;;;5116732;28;20227;-60
2022/01/21 02:26:46;;;;;;;6.68;2.15;;;-0.70;99.90;;;;;;5116359;28;20188;-60
2022/01/21 02:29:15;;;;;;;8.30;2.30;;;-0.70;99.90;;;;;;5115684;28;20210;-59
2022/01/21 02:31:42;;;;;;;14.63;3.15;;;-0.70;99.90;;;;;;5115572;28;20203;-61
2022/01/21 02:34:10;;;;;;;8.02;2.60;;;-0.70;99.90;;;;;;5115174;28;20223;-61
2022/01/21 02:36:37;;;;;;;11.98;3.00;;;-0.70;99.90;;;;;;5115372;28;20578;-61
2022/01/21 02:39:06;;;;;;;29.48;4.45;;;-0.60;99.90;;;;;;5115322;28;20200;-59
2022/01/21 02:41:33;;;;;;;9.50;2.65;;;-0.60;99.90;;;;;;5115108;28;20767;-60
2022/01/21 02:44:00;;;;;;;9.52;2.75;;;-0.60;99.90;;;;;;5115458;28;20737;-60
2022/01/21 02:46:27;;;;;;;6.63;4.10;;;-0.60;99.90;;;;;;5115405;28;20203;-59
2022/01/21 02:48:55;;;;;;;9.43;2.47;;;-0.60;99.90;;;;;;5114063;28;20250;-59
2022/01/21 02:51:22;;;;;;;10.25;2.88;;;-0.60;99.90;;;;;;5114901;28;20608;-60
2022/01/21 02:54:04;;;;;;;8.43;2.88;;;-0.60;99.90;;;;;;5115217;28;20246;-61
2022/01/21 02:56:34;;;;;;;14.18;3.10;;;-0.60;99.90;;;;;;5114650;28;20188;-60
2022/01/21 02:59:01;;;;;;;5.65;2.55;;;-0.60;99.90;;;;;;5114900;28;20196;-60
2022/01/21 03:01:32;;;;;;;9.20;2.60;;;-0.60;99.90;;;;;;5115161;28;20687;-60
2022/01/21 03:03:59;;;;;;;11.02;3.60;;;-0.60;99.90;;;;;;5116303;28;20220;-60
2022/01/21 03:06:27;;;;;;;6.95;2.42;;;-0.60;99.90;;;;;;5114452;28;20200;-60
2022/01/21 03:08:57;;;;;;;5.93;2.47;;;-0.60;99.90;;;;;;5114671;28;20199;-60
2022/01/21 03:11:25;;;;;;;11.00;2.95;;;-0.60;99.90;;;;;;5114747;28;20619;-59
2022/01/21 03:13:54;;;;;;;8.02;3.10;;;-0.60;99.90;;;;;;5114707;28;20277;-59
2022/01/21 03:16:21;;;;;;;6.97;3.05;;;-0.60;99.90;;;;;;5115099;28;20528;-60
2022/01/21 03:18:48;;;;;;;5.53;2.35;;;-0.60;99.90;;;;;;5114304;28;20575;-60
2022/01/21 03:21:18;;;;;;;13.57;2.53;;;-0.50;99.90;;;;;;5114582;28;20204;-59
2022/01/21 03:23:47;;;;;;;14.75;2.50;;;-0.50;99.90;;;;;;5114345;28;20306;-60
2022/01/21 03:26:16;;;;;;;6.53;2.90;;;-0.50;99.90;;;;;;5114494;28;20264;-60
2022/01/21 03:28:45;;;;;;;8.93;2.65;;;-0.40;99.90;;;;;;5114300;28;20208;-61
2022/01/21 03:31:13;;;;;;;18.35;3.58;;;-0.40;99.90;;;;;;5114505;28;20196;-60
2022/01/21 03:33:41;;;;;;;6.28;2.40;;;-0.40;99.90;;;;;;5114513;28;20226;-60
2022/01/21 03:36:09;;;;;;;9.07;1.95;;;-0.40;99.90;;;;;;5114395;28;20224;-60
2022/01/21 03:38:36;;;;;;;13.02;3.08;;;-0.40;99.90;;;;;;5114228;28;20195;-60
2022/01/21 03:41:04;;;;;;;8.32;3.15;;;-0.50;99.90;;;;;;5114272;28;20211;-60
2022/01/21 03:43:31;;;;;;;9.23;2.80;;;-0.40;99.90;;;;;;5114290;28;20219;-60
2022/01/21 03:45:59;;;;;;;10.40;2.83;;;-0.50;99.90;;;;;;5114388;28;20199;-60
2022/01/21 03:48:27;;;;;;;12.27;2.90;;;-0.40;99.90;;;;;;5114317;28;20203;-61
2022/01/21 03:50:55;;;;;;;8.95;2.70;;;-0.40;99.90;;;;;;5116000;28;20202;-60
2022/01/21 03:53:22;;;;;;;5.38;2.65;;;-0.30;99.90;;;;;;5115482;28;20707;-58
2022/01/21 03:55:49;;;;;;;4.03;1.80;;;-0.30;99.90;;;;;;5115022;28;20222;-60
2022/01/21 03:58:16;;;;;;;12.52;3.03;;;-0.20;99.90;;;;;;5115450;28;20199;-60
2022/01/21 04:00:45;;;;;;;10.80;2.80;;;-0.10;99.90;;;;;;5115613;28;20369;-61
2022/01/21 04:03:13;;;;;;;9.85;2.65;;;-0.10;99.90;;;;;;5115064;28;20264;-61
2022/01/21 04:09:13;;;;;;;8.77;2.10;;;-0.10;99.90;;;;;;5092106;27;20542;-60
2022/01/21 04:11:40;;;;;;;7.45;3.22;;;-0.10;99.90;;;;;;5091390;28;20207;-60
2022/01/21 04:14:07;;;;;;;6.65;2.35;;;-0.10;99.90;;;;;;5091516;28;20231;-60
2022/01/21 04:16:34;;;;;;;8.75;3.08;;;-0.10;99.90;;;;;;5091692;28;20219;-61
2022/01/21 04:19:01;;;;;;;7.25;2.20;;;-0.10;99.90;;;;;;5091952;28;20570;-60
2022/01/21 04:21:28;;;;;;;6.45;1.80;;;-0.10;99.90;;;;;;5092415;28;20200;-61
2022/01/21 04:23:55;;;;;;;3.88;1.55;;;-0.10;99.90;;;;;;5095309;28;20225;-60
2022/01/21 04:26:24;;;;;;;3.15;1.95;;;0.00;99.90;;;;;;5103160;28;20204;-61
2022/01/21 04:28:51;;;;;;;5.20;1.88;;;0.00;99.90;;;;;;5103388;28;20221;-61
2022/01/21 04:31:18;;;;;;;11.52;2.70;;;0.00;99.90;;;;;;5099670;28;20215;-59
2022/01/21 04:33:45;;;;;;;17.52;3.35;;;0.00;99.90;;;;;;5091867;28;20232;-60
2022/01/21 04:36:12;;;;;;;8.88;3.20;;;0.00;99.90;;;;;;5091408;28;20230;-59
2022/01/21 04:38:39;;;;;;;7.38;2.00;;;0.00;99.90;;;;;;5091720;28;20197;-59
2022/01/21 04:41:21;;;;;;;4.30;2.75;;;0.00;99.90;;;;;;5090548;28;20203;-60
2022/01/21 04:49:19;;;;;;;7.15;2.55;;;-0.10;99.90;;;;;;5090937;28;20221;-59
2022/01/21 04:52:02;;;;;;;6.05;2.15;;;-0.10;99.90;;;;;;5090435;28;20212;-60
2022/01/21 04:54:29;;;;;;;9.73;2.45;;;-0.20;99.90;;;;;;5090233;28;20224;-60
2022/01/21 04:56:56;;;;;;;8.10;2.33;;;-0.20;99.90;;;;;;5090377;28;20204;-61
2022/01/21 04:59:25;;;;;;;6.20;2.22;;;-0.20;99.90;;;;;;5090027;28;20684;-60
2022/01/21 05:01:52;;;;;;;3.30;1.83;;;-0.20;99.90;;;;;;5090075;28;20513;-60
2022/01/21 05:04:20;;;;;;;6.75;2.55;;;-0.20;99.90;;;;;;5090468;28;20682;-60
2022/01/21 05:06:49;;;;;;;7.90;2.22;;;-0.20;99.90;;;;;;5090824;28;20200;-60
2022/01/21 05:09:17;;;;;;;6.30;2.63;;;-0.20;99.90;;;;;;5090210;28;20573;-59
2022/01/21 05:11:44;;;;;;;5.80;2.05;;;-0.20;99.90;;;;;;5089943;28;20231;-60
2022/01/21 05:14:17;;;;;;;7.80;2.25;;;-0.20;99.90;;;;;;5089485;28;20216;-58
2022/01/21 05:16:47;;;;;;;2.53;1.73;;;-0.20;99.90;;;;;;5090404;28;20196;-59
2022/01/21 05:19:16;;;;;;;9.45;2.70;;;-0.20;99.90;;;;;;5083500;28;20181;-61
2022/01/21 05:21:43;;;;;;;8.60;2.03;;;-0.10;99.90;;;;;;5076227;28;20300;-60
2022/01/21 05:24:11;;;;;;;6.88;2.40;;;-0.10;99.90;;;;;;5080217;28;20244;-59
2022/01/21 05:26:40;;;;;;;9.95;2.05;;;-0.10;99.90;;;;;;5083596;28;20209;-62
2022/01/21 05:29:09;;;;;;;4.32;1.83;;;-0.10;99.90;;;;;;5082596;28;20248;-58
2022/01/21 05:31:36;;;;;;;7.63;2.30;;;-0.10;99.90;;;;;;5080813;28;20208;-60
2022/01/21 05:34:05;;;;;;;8.10;2.33;;;0.00;99.90;;;;;;5078981;28;20311;-59
2022/01/21 05:36:37;;;;;;;6.25;2.13;;;0.00;99.90;;;;;;5075926;28;20202;-60
2022/01/21 05:39:04;;;;;;;4.35;2.38;;;0.00;99.90;;;;;;5075951;28;20600;-59
2022/01/21 05:41:32;;;;;;;9.10;2.30;;;0.10;99.90;;;;;;5075527;28;20211;-61
2022/01/21 05:44:02;;;;;;;7.75;2.15;;;0.10;99.90;;;;;;5075941;28;20217;-60
2022/01/21 05:46:44;;;;;;;5.47;1.90;;;0.20;99.90;;;;;;5075771;28;20629;-61
2022/01/21 05:49:14;;;;;;;6.25;2.55;;;0.30;99.90;;;;;;5075848;28;20205;-60
2022/01/21 05:51:42;;;;;;;5.47;1.70;;;0.30;99.90;;;;;;5075568;28;20205;-61
2022/01/21 05:54:09;;;;;;;4.60;1.73;;;0.30;99.90;;;;;;5075845;28;20225;-60
2022/01/21 05:56:37;;;;;;;6.72;2.22;;;0.40;99.90;;;;;;5075708;28;20251;-59
2022/01/21 05:59:04;;;;;;;5.35;2.88;;;0.40;99.90;;;;;;5075763;28;20665;-59
2022/01/21 06:01:33;;;;;;;4.90;2.28;;;0.40;99.90;;;;;;5076624;28;20197;-60
2022/01/21 06:04:00;;;;;;;5.07;2.47;;;0.50;99.90;;;;;;5078276;28;20751;-59
2022/01/21 06:06:29;;;;;;;7.18;3.00;;;0.50;99.90;;;;;;5083232;28;20505;-59
2022/01/21 06:08:57;;;;;;;4.75;1.90;;;0.50;99.90;;;;;;5091973;28;20228;-59
2022/01/21 06:11:24;;;;;;;8.43;2.08;;;0.60;99.90;;;;;;5095069;28;20212;-59
2022/01/21 06:13:51;;;;;;;5.72;2.00;;;0.60;99.90;;;;;;5093064;28;20584;-59
2022/01/21 06:16:18;;;;;;;22.05;3.08;;;0.60;99.90;;;;;;5088733;28;20201;-60
2022/01/21 06:18:46;;;;;;;9.10;2.83;;;0.60;99.90;;;;;;5091075;28;20201;-59
2022/01/21 06:21:14;;;;;;;6.80;2.20;;;0.70;99.90;;;;;;5091412;28;20211;-59
2022/01/21 06:23:42;;;;;;;5.80;2.22;;;0.70;99.90;;;;;;5090721;28;20225;-59
2022/01/21 06:26:10;;;;;;;5.55;2.03;;;0.70;99.90;;;;;;5089582;28;20288;-59
2022/01/21 06:28:37;;;;;;;7.75;1.67;;;0.70;99.90;;;;;;5089705;28;20213;-59
2022/01/21 06:31:04;;;;;;;5.07;1.80;;;0.70;99.90;;;;;;5083678;28;20200;-59
2022/01/21 06:33:31;;;;;;;4.57;1.90;;;0.80;99.90;;;;;;5078130;28;20221;-58
2022/01/21 06:35:58;;;;;;;5.80;2.08;;;0.80;99.90;;;;;;5078361;28;20224;-60
2022/01/21 06:38:27;;;;;;;5.72;1.73;;;0.80;99.90;;;;;;5081691;28;20288;-59
2022/01/21 06:40:56;;;;;;;5.70;1.70;;;0.80;99.90;;;;;;5078230;28;20299;-60
2022/01/21 06:43:23;;;;;;;5.78;2.22;;;0.90;99.90;;;;;;5079075;28;20231;-60
2022/01/21 06:45:50;;;;;;;3.05;1.88;;;0.90;99.90;;;;;;5078653;28;20204;-59
2022/01/21 06:48:17;;;;;;;8.73;2.60;;;0.90;99.90;;;;;;5079318;28;20697;-60
2022/01/21 06:50:45;;;;;;;7.05;2.17;;;0.90;99.90;;;;;;5080072;28;20213;-59
2022/01/21 06:53:12;;;;;;;5.78;2.08;;;0.90;99.90;;;;;;5078944;28;20228;-58
2022/01/21 06:55:39;;;;;;;10.90;3.83;;;1.00;99.90;;;;;;5075934;28;20574;-59
2022/01/21 06:58:08;;;;;;;10.85;2.25;;;1.00;99.90;;;;;;5074869;28;20670;-59
2022/01/21 07:00:35;;;;;;;8.95;2.55;;;1.00;99.90;;;;;;5074621;28;20201;-60
2022/01/21 07:03:02;;;;;;;4.28;2.60;;;1.10;99.90;;;;;;5074490;28;20201;-61
2022/01/21 07:05:30;;;;;;;9.18;2.17;;;1.10;99.90;;;;;;5074982;28;20208;-59
2022/01/21 07:07:58;;;;;;;4.05;1.75;;;1.10;99.90;;;;;;5074079;28;20233;-60
2022/01/21 07:10:27;;;;;;;5.47;2.17;;;1.20;99.90;;;;;;5080425;28;20221;-59
2022/01/21 07:12:54;;;;;;;9.57;2.00;;;1.20;99.90;;;;;;5081364;28;20227;-60
2022/01/21 07:15:23;;;;;;;6.80;1.92;;;1.20;99.90;;;;;;5079761;28;20680;-59
2022/01/21 07:17:52;;;;;;;6.30;2.58;;;1.10;99.90;;;;;;5077396;28;20568;-60
2022/01/21 07:20:20;;;;;;;7.95;2.22;;;1.10;99.90;;;;;;5077248;28;20209;-59
2022/01/21 07:22:47;;;;;;;6.97;2.20;;;1.10;99.90;;;;;;5079683;28;20204;-59
2022/01/21 07:25:15;;;;;;;5.75;2.00;;;1.10;99.90;;;;;;5075430;28;20216;-59
2022/01/21 07:27:42;;;;;;;8.48;2.05;;;1.00;99.90;;;;;;5074980;28;20543;-59
2022/01/21 07:30:11;;;;;;;7.35;2.47;;;1.00;99.90;;;;;;5077150;28;20219;-58
2022/01/21 07:32:40;;;;;;;5.45;2.25;;;1.00;99.90;;;;;;5075137;28;20632;-60
2022/01/21 07:35:09;;;;;;;6.65;3.20;;;1.00;99.90;;;;;;5074202;28;20708;-60
2022/01/21 07:37:36;;;;;;;5.63;2.60;;;1.00;99.90;;;;;;5074505;28;20205;-59
2022/01/21 07:40:04;;;;;;;8.95;4.50;;;1.00;99.90;;;;;;5074076;28;20198;-61
2022/01/21 07:42:31;;;;;;;8.10;3.08;;;1.00;99.90;;;;;;5073776;28;20197;-60
2022/01/21 07:44:58;;;;;;;13.27;4.07;;;1.00;99.90;;;;;;5074260;28;20232;-60
2022/01/21 07:47:26;;;;;;;8.30;2.72;;;1.00;99.90;;;;;;5073898;28;20201;-59
2022/01/21 07:49:54;;;;;;;7.05;3.00;;;1.00;99.90;;;;;;5074837;28;20217;-60
2022/01/21 07:52:21;;;;;;;5.75;2.72;;;1.10;99.90;;;;;;5074784;28;20205;-60
2022/01/21 07:54:48;;;;;;;7.78;2.83;;;1.10;99.90;;;;;;5074307;28;20231;-60
2022/01/21 07:57:15;;;;;;;14.23;3.70;;;1.10;99.90;;;;;;5073581;28;20201;-60
2022/01/21 07:59:43;;;;;;;9.23;3.65;;;1.10;99.90;;;;;;5073502;28;20201;-59
2022/01/21 08:02:11;;;;;;;9.25;3.33;;;1.10;99.90;;;;;;5073488;28;20656;-60
2022/01/21 08:04:38;;;;;;;9.93;3.47;;;1.10;99.90;;;;;;5073351;28;20217;-59
2022/01/21 08:07:09;;;;;;;5.57;3.63;;;1.20;99.90;;;;;;5073313;28;20205;-59
2022/01/21 08:09:36;;;;;;;13.07;4.20;;;1.20;99.90;;;;;;5074527;28;20205;-60
2022/01/21 08:12:03;;;;;;;6.45;3.03;;;1.20;99.90;;;;;;5075842;28;20201;-59
2022/01/21 08:14:30;;;;;;;5.63;3.47;;;1.30;99.90;;;;;;5074421;28;20217;-58
2022/01/21 08:16:59;;;;;;;9.55;3.83;;;1.30;99.90;;;;;;5074181;28;20205;-60
2022/01/21 08:19:26;;;;;;;10.13;3.03;;;1.30;99.90;;;;;;5073560;28;20215;-60
2022/01/21 08:21:53;;;;;;;9.82;3.80;;;1.40;99.90;;;;;;5073374;28;20197;-59
2022/01/21 08:24:21;;;;;;;10.38;4.15;;;1.40;99.90;;;;;;5073663;28;20217;-59
2022/01/21 08:26:48;;;;;;;9.70;3.05;;;1.40;99.90;;;;;;5073680;28;20205;-59
2022/01/21 08:29:16;;;;;;;7.05;3.63;;;1.40;99.90;;;;;;5073688;28;20228;-59
2022/01/21 08:31:44;;;;;;;10.02;3.70;;;1.40;99.90;;;;;;5073807;28;20216;-60
2022/01/21 08:34:12;;;;;;;7.93;3.22;;;1.50;99.90;;;;;;5073557;28;20248;-59
2022/01/21 08:36:39;;;;;;;6.15;3.10;;;1.50;99.90;;;;;;5073092;28;20229;-60
2022/01/21 08:39:08;;;;;;;4.60;3.20;;;1.50;99.90;;;;;;5073223;28;20681;-60
2022/01/21 08:41:36;;;;;;;9.27;3.63;;;1.60;99.90;;;;;;5073106;28;20669;-60
2022/01/21 08:44:03;;;;;;;6.93;3.55;;;1.60;99.90;;;;;;5072687;28;20319;-61
2022/01/21 08:46:31;;;;;;;5.40;3.60;;;1.70;99.90;;;;;;5073314;28;20200;-62
2022/01/21 08:48:58;;;;;;;7.15;2.70;;;1.70;99.90;;;;;;5073077;28;20225;-60
2022/01/21 08:51:29;;;;;;;11.57;3.80;;;1.80;99.90;;;;;;5073265;28;20201;-60
2022/01/21 08:53:56;;;;;;;6.22;3.47;;;1.90;99.90;;;;;;5073053;28;20274;-60
2022/01/21 08:56:23;;;;;;;14.57;3.70;;;1.90;99.90;;;;;;5076407;28;20215;-61
2022/01/21 08:58:51;;;;;;;7.88;3.00;;;1.90;99.90;;;;;;5076373;28;20204;-62
2022/01/21 09:01:18;;;;;;;8.30;3.78;;;2.00;99.90;;;;;;5076463;28;20201;-62
2022/01/21 09:03:46;;;;;;;11.02;3.60;;;2.00;99.90;;;;;;5076644;28;20221;-61
2022/01/21 09:06:18;;;;;;;6.97;3.20;;;2.00;99.90;;;;;;5076632;28;20200;-61
2022/01/21 09:08:46;;;;;;;4.43;2.95;;;2.00;99.90;;;;;;5076199;28;20223;-60
2022/01/21 09:11:14;;;;;;;9.65;4.07;;;2.10;99.90;;;;;;5076693;28;20236;-61
2022/01/21 09:13:42;;;;;;;4.70;3.22;;;2.10;99.90;;;;;;5076084;28;20223;-61
2022/01/21 09:16:11;;;;;;;5.50;3.40;;;2.10;99.90;;;;;;5076736;28;20232;-60
2022/01/21 09:18:50;;;;;;;8.25;3.95;;;2.10;99.90;;;;;;5076718;28;20293;-60
2022/01/21 09:21:19;;;;;;;5.20;3.05;;;2.10;99.90;;;;;;5077082;28;20193;-61
2022/01/21 09:23:49;;;;;;;5.53;2.80;;;2.10;99.90;;;;;;5078267;28;20236;-61
2022/01/21 09:26:17;;;;;;;6.05;4.00;;;2.20;99.90;;;;;;5082853;28;20266;-62
2022/01/21 09:28:45;;;;;;;10.45;3.42;;;2.20;99.90;;;;;;5079946;28;20224;-60
2022/01/21 09:31:13;;;;;;;9.20;4.40;;;2.20;99.90;;;;;;5076234;28;20197;-61
2022/01/21 09:33:40;;;;;;;9.02;3.55;;;2.30;99.90;;;;;;5076116;28;20221;-60
2022/01/21 09:36:08;;;;;;;6.68;3.03;;;2.30;99.90;;;;;;5076211;28;20592;-58
2022/01/21 09:38:35;;;;;;;7.47;3.78;;;2.30;99.90;;;;;;5076297;28;20212;-61
2022/01/21 09:41:04;;;;;;;8.15;3.70;;;2.40;99.90;;;;;;5075879;28;20209;-61
2022/01/21 09:43:33;;;;;;;9.35;3.40;;;2.50;99.90;;;;;;5078811;28;20228;-60
2022/01/21 09:46:05;;;;;;;6.10;2.85;;;2.50;99.90;;;;;;5088014;28;20315;-60
2022/01/21 09:48:37;;;;;;;7.47;3.35;;;2.60;99.90;;;;;;5089227;28;20200;-61
2022/01/21 09:51:06;;;;;;;4.07;2.72;;;2.60;99.90;;;;;;5089849;28;20189;-60
2022/01/21 09:53:36;;;;;;;7.45;3.97;;;2.70;99.90;;;;;;5083339;28;20660;-61
2022/01/21 09:56:05;;;;;;;7.03;3.65;;;2.70;99.90;;;;;;5076395;28;20204;-60
2022/01/21 09:58:34;;;;;;;6.75;3.30;;;2.70;99.90;;;;;;5076153;28;20201;-61
2022/01/21 10:01:05;;;;;;;5.85;3.40;;;2.80;99.90;;;;;;5076135;28;20197;-61
2022/01/21 10:03:34;;;;;;;7.25;3.97;;;2.90;99.90;;;;;;5075777;28;20248;-60
2022/01/21 10:06:03;;;;;;;5.90;3.03;;;2.90;99.90;;;;;;5075899;28;20205;-61
2022/01/21 10:08:32;;;;;;;8.05;3.10;;;2.90;99.90;;;;;;5082318;28;20213;-59
2022/01/21 10:10:59;;;;;;;4.40;2.92;;;2.90;99.90;;;;;;5083812;28;20224;-59
2022/01/21 10:13:28;;;;;;;6.63;3.20;;;2.90;99.90;;;;;;5077169;28;20593;-61
2022/01/21 10:15:55;;;;;;;7.18;3.92;;;3.00;99.90;;;;;;5075367;28;20258;-59
2022/01/21 10:18:23;;;;;;;11.82;3.35;;;3.00;99.90;;;;;;5075459;28;20200;-62
2022/01/21 10:21:00;;;;;;;5.88;2.85;;;3.00;99.90;;;;;;5075840;28;20197;-61
2022/01/21 10:23:28;;;;;;;7.43;3.78;;;3.10;99.90;;;;;;5064607;22;20234;-55
2022/01/21 10:26:03;;;;;;;7.38;3.80;;;3.10;99.90;;;;;;5034216;28;20203;-56
2022/01/21 10:28:31;;;;;;;6.00;3.00;;;3.10;99.90;;;;;;5034241;28;20197;-55
2022/01/21 10:31:08;;;;;;;5.22;2.80;;;3.10;99.90;;;;;;5034027;28;20218;-55
2022/01/21 10:33:41;;;;;;;7.72;3.42;;;3.10;99.90;;;;;;5033624;28;20257;-55
2022/01/21 10:36:15;;;;;;;10.45;3.65;;;3.10;99.90;;;;;;5034439;28;20186;-58
2022/01/21 10:38:44;;;;;;;6.25;3.42;;;3.10;99.90;;;;;;5034272;28;20550;-56
2022/01/21 10:41:13;;;;;;;5.30;3.40;;;3.10;99.90;;;;;;5033754;28;20198;-56
2022/01/21 10:43:40;;;;;;;7.75;4.22;;;3.10;99.90;;;;;;5033938;28;20225;-56
2022/01/21 10:46:07;;;;;;;6.32;3.40;;;3.10;99.90;;;;;;5034476;28;20202;-55
2022/01/21 10:48:59;;;;;;;8.35;4.07;;;3.10;99.90;;;;;;5034006;28;20209;-55
2022/01/21 10:51:29;;;;;;;6.45;3.40;;;3.20;99.90;;;;;;5034536;28;20202;-56
2022/01/21 10:53:58;;;;;;;4.90;3.25;;;3.20;99.90;;;;;;5035233;28;20214;-57
2022/01/21 10:56:27;;;;;;;12.98;3.63;;;3.30;99.90;;;;;;5034222;28;20651;-55
2022/01/21 10:58:57;;;;;;;5.20;3.25;;;3.40;99.90;;;;;;5034799;28;20213;-55
2022/01/21 11:01:28;;;;;;;6.57;3.92;;;3.50;99.90;;;;;;5034347;28;20198;-58
2022/01/21 11:04:05;;;;;;;8.32;3.45;;;3.50;99.90;;;;;;5034694;28;20198;-56
2022/01/21 11:06:43;;;;;;;5.47;3.15;;;3.50;99.90;;;;;;5033986;28;20281;-56
2022/01/21 11:09:17;;;;;;;5.00;3.17;;;3.50;99.90;;;;;;5033565;28;20607;-56
2022/01/21 11:11:44;;;;;;;9.27;3.45;;;3.60;99.90;;;;;;5033553;28;20226;-55
2022/01/21 11:14:14;;;;;;;9.55;3.60;;;3.70;99.90;;;;;;5034338;28;20209;-56
2022/01/21 11:16:44;;;;;;;3.03;2.65;;;3.70;99.90;;;;;;5032755;28;20669;-55
2022/01/21 11:19:13;;;;;;;9.15;2.53;;;3.80;99.90;;;;;;5033933;28;20193;-56
2022/01/21 11:21:53;;;;;;;8.65;3.55;;;3.90;99.90;;;;;;5033365;28;20240;-55
2022/01/21 11:24:22;;;;;;;6.15;2.80;;;3.90;99.90;;;;;;5033746;28;20612;-56
2022/01/21 11:27:13;;;;;;;5.55;2.90;;;3.90;99.90;;;;;;5033238;28;20205;-57
2022/01/21 11:29:42;;;;;;;10.02;2.50;;;4.00;99.90;;;;;;5033669;28;20211;-55
2022/01/21 11:32:10;;;;;;;8.63;3.30;;;4.00;99.90;;;;;;5034262;28;20223;-55
2022/01/21 11:34:37;;;;;;;7.03;2.72;;;4.00;99.90;;;;;;5033809;28;20205;-56
2022/01/21 11:37:08;;;;;;;10.10;3.03;;;4.00;99.90;;;;;;5033512;28;20202;-56
2022/01/21 11:39:36;;;;;;;9.65;3.50;;;4.00;99.90;;;;;;5034057;28;20187;-56
2022/01/21 11:42:07;;;;;;;7.53;3.72;;;4.00;99.90;;;;;;5033750;28;20237;-57
2022/01/21 11:44:37;;;;;;;4.47;2.78;;;4.00;99.90;;;;;;5033285;28;20211;-56
2022/01/21 11:47:28;;;;;;;13.88;3.95;;;4.00;99.90;;;;;;5033607;28;20186;-57
2022/01/21 11:49:58;;;;;;;12.65;4.00;;;4.00;99.90;;;;;;5033542;28;20218;-56
2022/01/21 11:52:26;;;;;;;7.07;2.83;;;4.00;99.90;;;;;;5033158;28;20229;-55
2022/01/21 11:54:54;;;;;;;12.07;3.50;;;4.00;99.90;;;;;;5033647;28;20207;-56
2022/01/21 11:57:30;;;;;;;7.82;3.35;;;3.90;99.90;;;;;;5034228;28;20202;-56
2022/01/21 12:00:05;;;;;;;8.15;2.97;;;3.90;99.90;;;;;;5034200;28;20206;-56
2022/01/21 12:02:34;;;;;;;6.25;3.30;;;3.80;99.90;;;;;;5033458;28;20222;-56
2022/01/21 12:05:02;;;;;;;5.13;3.55;;;3.70;99.90;;;;;;5033274;28;20212;-56
2022/01/21 12:08:03;;;;;;;8.52;3.63;;;3.70;99.90;;;;;;5033050;28;20228;-57
2022/01/21 12:10:33;;;;;;;9.35;3.28;;;3.70;99.90;;;;;;5033429;28;20223;-58
2022/01/21 12:13:17;;;;;;;6.70;3.33;;;3.70;99.90;;;;;;5032770;28;20233;-56
2022/01/21 12:15:54;;;;;;;10.23;3.55;;;3.80;99.90;;;;;;5031719;28;20708;-58
2022/01/21 12:18:39;;;;;;;5.13;3.55;;;3.80;99.90;;;;;;5033723;28;20200;-57
2022/01/21 12:21:28;;;;;;;8.90;3.50;;;3.80;99.90;;;;;;5034433;28;20202;-56
2022/01/21 12:23:57;;;;;;;9.30;3.05;;;3.90;99.90;;;;;;5034556;28;20193;-56
2022/01/21 12:26:25;;;;;;;8.55;3.38;;;4.00;99.90;;;;;;5034843;28;20231;-56
2022/01/21 12:29:24;;;;;;;6.22;3.30;;;4.00;99.90;;;;;;5034772;28;20574;-57
2022/01/21 12:31:55;;;;;;;7.00;3.75;;;4.10;99.90;;;;;;5038613;28;20233;-57
2022/01/21 12:34:23;;;;;;;9.05;3.70;;;4.10;99.90;;;;;;5039211;28;20781;-55
2022/01/21 12:36:53;;;;;;;5.40;3.05;;;4.10;99.90;;;;;;5039796;28;20229;-57
2022/01/21 12:39:43;;;;;;;13.23;4.10;;;4.10;99.90;;;;;;5048260;28;20256;-56
2022/01/21 12:42:29;;;;;;;7.72;3.40;;;4.10;99.90;;;;;;5041838;28;20226;-55
2022/01/21 12:44:58;;;;;;;9.38;3.67;;;4.10;99.90;;;;;;5040613;28;20559;-55
2022/01/21 12:47:31;;;;;;;7.32;4.55;;;4.00;99.90;;;;;;5038766;28;20218;-55
2022/01/21 12:49:59;;;;;;;6.50;3.38;;;4.00;99.90;;;;;;5039678;28;20221;-57
2022/01/21 12:52:47;;;;;;;11.15;3.08;;;4.00;99.90;;;;;;5036463;28;20222;-58
2022/01/21 12:58:13;;;;;;;8.18;3.90;;;4.00;99.90;;;;;;5036320;28;20186;-56
2022/01/21 13:00:41;;;;;;;7.05;3.38;;;4.10;99.90;;;;;;5035828;28;20198;-57
2022/01/21 13:03:19;;;;;;;9.90;3.83;;;4.10;99.90;;;;;;5035934;28;20222;-58
2022/01/21 13:05:55;;;;;;;7.88;3.72;;;4.10;99.90;;;;;;5035981;28;20643;-58
2022/01/21 13:08:34;;;;;;;9.70;3.88;;;4.10;99.90;;;;;;5036322;28;20186;-58
2022/01/21 13:11:15;;;;;;;8.60;4.38;;;4.10;99.90;;;;;;5036001;28;20275;-56
2022/01/21 13:13:58;;;;;;;8.82;3.85;;;4.10;99.90;;;;;;5035417;28;20647;-57
2022/01/21 13:16:28;;;;;;;9.18;4.05;;;4.10;99.90;;;;;;5035902;28;20190;-58
2022/01/21 13:19:03;;;;;;;10.95;4.80;;;4.10;99.90;;;;;;5035956;28;20210;-58
2022/01/21 13:21:31;;;;;;;9.90;4.40;;;4.10;99.90;;;;;;5035708;28;20198;-57
2022/01/21 13:24:02;;;;;;;10.73;4.40;;;4.10;99.90;;;;;;5036075;28;20194;-58
2022/01/21 13:26:36;;;;;;;7.25;3.90;;;4.20;99.90;;;;;;5036105;28;20213;-59
2022/01/21 13:29:05;;;;;;;8.13;4.72;;;4.20;99.90;;;;;;5035716;28;20662;-58
2022/01/21 13:31:35;;;;;;;9.63;4.72;;;4.20;99.90;;;;;;5035528;28;20226;-58
2022/01/21 13:34:08;;;;;;;12.13;3.92;;;4.20;99.90;;;;;;5036169;28;20202;-58
2022/01/21 13:36:48;;;;;;;7.88;3.55;;;4.20;99.90;;;;;;5038323;28;20218;-56
2022/01/21 13:39:17;;;;;;;11.18;3.55;;;4.20;99.90;;;;;;5038699;28;20281;-56
2022/01/21 13:41:56;;;;;;;8.02;4.15;;;4.20;99.90;;;;;;5038858;28;20226;-58
2022/01/21 13:44:33;;;;;;;10.48;3.92;;;4.20;99.90;;;;;;5039563;28;20187;-58
2022/01/21 13:47:03;;;;;;;7.20;3.63;;;4.20;99.90;;;;;;5038560;28;20274;-57